createdAt,value
2023-04-24T00:00:18.744Z,14.81
2023-04-24T00:02:48.978Z,14.85
2023-04-24T00:05:18.252Z,14.86
2023-04-24T00:07:47.128Z,14.89
2023-04-24T00:10:15.222Z,14.89
2023-04-24T00:12:43.329Z,14.88
2023-04-24T00:15:12.614Z,14.96
2023-04-24T00:17:41.114Z,14.98
2023-04-24T00:20:12.777Z,15.00
2023-04-24T00:22:40.936Z,15.00
2023-04-24T00:25:10.249Z,15.05
2023-04-24T00:27:39.700Z,15.06
2023-04-24T00:30:09.483Z,15.01
2023-04-24T00:32:37.646Z,14.92
2023-04-24T00:35:07.865Z,14.92
2023-04-24T00:37:37.701Z,14.93
2023-04-24T00:40:13.559Z,15.01
2023-04-24T00:42:42.531Z,14.99
2023-04-24T00:45:14.947Z,14.97
2023-04-24T00:47:44.298Z,14.95
2023-04-24T00:50:19.033Z,14.95
2023-04-24T00:52:48.437Z,15.03
2023-04-24T00:55:16.889Z,15.03
2023-04-24T00:57:45.813Z,15.08
2023-04-24T01:00:15.602Z,14.98
2023-04-24T01:02:46.623Z,15.02
2023-04-24T01:05:18.327Z,15.04
2023-04-24T01:07:49.977Z,15.04
2023-04-24T01:10:19.148Z,14.95
2023-04-24T01:12:48.463Z,14.95
2023-04-24T01:15:16.671Z,14.99
2023-04-24T01:17:44.765Z,15.06
2023-04-24T01:20:12.967Z,15.00
2023-04-24T01:22:44.487Z,14.90
2023-04-24T01:25:12.622Z,14.90
2023-04-24T01:27:40.791Z,14.88
2023-04-24T01:30:10.936Z,14.89
2023-04-24T01:32:40.178Z,14.82
2023-04-24T01:35:10.089Z,14.83
2023-04-24T01:37:39.023Z,14.78
2023-04-24T01:40:10.246Z,14.76
2023-04-24T01:42:38.558Z,14.80
2023-04-24T01:45:08.502Z,14.83
2023-04-24T01:47:36.993Z,14.85
2023-04-24T01:50:06.462Z,14.82
2023-04-24T01:52:36.153Z,14.80
2023-04-24T01:55:05.240Z,14.85
2023-04-24T01:57:35.882Z,14.80
2023-04-24T02:00:06.682Z,14.80
2023-04-24T02:02:42.382Z,14.78
2023-04-24T02:05:12.000Z,14.73
2023-04-24T02:07:40.841Z,14.76
2023-04-24T02:10:10.386Z,14.74
2023-04-24T02:12:39.849Z,14.74
2023-04-24T02:15:08.705Z,14.74
2023-04-24T02:17:39.249Z,14.68
2023-04-24T02:20:09.417Z,14.71
2023-04-24T02:22:37.499Z,14.75
2023-04-24T02:25:06.585Z,14.77
2023-04-24T02:27:34.640Z,14.73
2023-04-24T02:30:04.730Z,14.71
2023-04-24T02:32:32.881Z,14.64
2023-04-24T02:35:01.028Z,14.68
2023-04-24T02:37:29.147Z,14.67
2023-04-24T02:39:57.268Z,14.67
2023-04-24T02:42:25.329Z,14.67
2023-04-24T02:44:53.383Z,14.67
2023-04-24T02:47:23.015Z,14.63
2023-04-24T02:49:51.142Z,14.62
2023-04-24T02:52:19.257Z,14.56
2023-04-24T02:54:47.366Z,14.55
2023-04-24T02:57:16.079Z,14.64
2023-04-24T02:59:44.843Z,14.61
2023-04-24T03:02:13.065Z,14.58
2023-04-24T03:04:44.010Z,14.51
2023-04-24T03:07:12.414Z,14.46
2023-04-24T03:09:40.421Z,14.46
2023-04-24T03:12:08.598Z,14.48
2023-04-24T03:14:36.653Z,14.38
2023-04-24T03:17:04.738Z,14.39
2023-04-24T03:19:32.892Z,14.32
2023-04-24T03:22:10.051Z,14.24
2023-04-24T03:24:38.848Z,14.29
2023-04-24T03:27:07.282Z,14.30
2023-04-24T03:29:49.427Z,14.28
2023-04-24T03:32:18.753Z,14.29
2023-04-24T03:34:48.491Z,14.26
2023-04-24T03:37:18.524Z,14.22
2023-04-24T03:39:54.187Z,14.21
2023-04-24T03:42:26.061Z,14.21
2023-04-24T03:44:57.379Z,14.19
2023-04-24T03:47:31.051Z,14.21
2023-04-24T03:50:02.786Z,14.22
2023-04-24T03:52:33.996Z,14.21
2023-04-24T03:55:02.405Z,14.11
2023-04-24T03:57:32.712Z,14.08
2023-04-24T04:00:14.092Z,14.12
2023-04-24T04:02:48.830Z,14.11
2023-04-24T04:05:17.241Z,14.07
2023-04-24T04:07:46.678Z,14.07
2023-04-24T04:10:15.285Z,13.98
2023-04-24T04:12:43.420Z,14.00
2023-04-24T04:15:12.518Z,13.88
2023-04-24T04:17:40.733Z,13.82
2023-04-24T04:20:14.289Z,13.76
2023-04-24T04:22:44.443Z,13.78
2023-04-24T04:25:20.253Z,13.75
2023-04-24T04:27:49.508Z,13.64
2023-04-24T04:30:19.095Z,13.58
2023-04-24T04:32:52.995Z,13.55
2023-04-24T04:35:22.825Z,13.48
2023-04-24T04:37:52.379Z,13.47
2023-04-24T04:40:43.515Z,13.40
2023-04-24T04:43:14.228Z,13.39
2023-04-24T04:45:49.211Z,13.31
2023-04-24T04:48:36.048Z,13.32
2023-04-24T04:51:07.272Z,13.38
2023-04-24T04:53:35.992Z,13.26
2023-04-24T04:56:05.819Z,13.25
2023-04-24T04:58:46.015Z,13.27
2023-04-24T05:01:17.309Z,13.30
2023-04-24T05:03:48.401Z,13.31
2023-04-24T05:06:18.325Z,13.31
2023-04-24T05:08:47.515Z,13.30
2023-04-24T05:11:34.120Z,13.29
2023-04-24T05:14:03.684Z,13.23
2023-04-24T05:16:38.015Z,13.20
2023-04-24T05:19:07.614Z,13.15
2023-04-24T05:21:40.282Z,13.12
2023-04-24T05:24:09.944Z,13.09
2023-04-24T05:27:05.596Z,12.99
2023-04-24T05:29:41.244Z,12.99
2023-04-24T05:32:10.391Z,12.98
2023-04-24T05:34:38.478Z,12.99
2023-04-24T05:37:09.229Z,12.93
2023-04-24T05:39:37.468Z,12.94
2023-04-24T05:42:07.238Z,12.98
2023-04-24T05:44:35.540Z,12.94
2023-04-24T05:47:03.800Z,12.94
2023-04-24T05:49:31.916Z,12.98
2023-04-24T05:52:00.155Z,13.01
2023-04-24T05:54:28.219Z,12.93
2023-04-24T05:56:57.889Z,12.96
2023-04-24T05:59:43.005Z,13.04
2023-04-24T06:02:12.325Z,12.98
2023-04-24T06:04:41.205Z,12.91
2023-04-24T06:07:09.725Z,12.99
2023-04-24T06:09:37.926Z,13.02
2023-04-24T06:12:08.353Z,13.05
2023-04-24T06:14:52.254Z,13.09
2023-04-24T06:17:25.112Z,13.15
2023-04-24T06:19:53.785Z,13.30
2023-04-24T06:22:24.038Z,13.37
2023-04-24T06:24:52.204Z,13.43
2023-04-24T06:27:20.357Z,13.43
2023-04-24T06:29:53.633Z,13.51
2023-04-24T06:32:24.203Z,13.59
2023-04-24T06:34:54.343Z,13.76
2023-04-24T06:37:22.972Z,13.76
2023-04-24T06:39:51.120Z,13.81
2023-04-24T06:42:26.234Z,13.86
2023-04-24T06:44:54.334Z,13.82
2023-04-24T06:47:23.906Z,13.93
2023-04-24T06:49:53.510Z,14.01
2023-04-24T06:52:21.830Z,14.06
2023-04-24T06:54:49.898Z,13.98
2023-04-24T06:57:18.096Z,14.09
2023-04-24T06:59:46.234Z,14.05
2023-04-24T07:02:14.668Z,14.03
2023-04-24T07:04:44.242Z,13.85
2023-04-24T07:07:15.270Z,13.80
2023-04-24T07:09:43.845Z,13.78
2023-04-24T07:12:12.454Z,13.87
2023-04-24T07:14:40.593Z,13.90
2023-04-24T07:17:08.808Z,13.90
2023-04-24T07:19:37.351Z,13.94
2023-04-24T07:22:06.987Z,13.99
2023-04-24T07:24:35.245Z,14.07
2023-04-24T07:27:03.390Z,14.05
2023-04-24T07:29:31.519Z,14.05
2023-04-24T07:32:00.912Z,13.91
2023-04-24T07:34:30.270Z,13.83
2023-04-24T07:36:58.431Z,14.01
2023-04-24T07:39:28.699Z,13.84
2023-04-24T07:41:56.781Z,13.81
2023-04-24T07:44:24.890Z,13.83
2023-04-24T07:46:53.302Z,13.83
2023-04-24T07:49:21.516Z,13.87
2023-04-24T07:51:49.668Z,13.86
2023-04-24T07:54:17.794Z,13.81
2023-04-24T07:56:47.293Z,13.75
2023-04-24T07:59:15.375Z,13.75
2023-04-24T08:01:43.487Z,13.75
2023-04-24T08:04:11.834Z,13.77
2023-04-24T08:06:40.124Z,13.99
2023-04-24T08:09:08.267Z,13.88
2023-04-24T08:11:36.419Z,13.96
2023-04-24T08:14:06.202Z,13.90
2023-04-24T08:16:35.319Z,13.95
2023-04-24T08:19:03.597Z,14.02
2023-04-24T08:21:31.708Z,13.93
2023-04-24T08:24:00.058Z,14.05
2023-04-24T08:26:28.601Z,14.09
2023-04-24T08:28:56.863Z,14.11
2023-04-24T08:31:27.227Z,14.11
2023-04-24T08:33:55.512Z,13.84
2023-04-24T08:36:28.248Z,13.88
2023-04-24T08:39:01.328Z,14.01
2023-04-24T08:41:30.167Z,14.06
2023-04-24T08:43:59.777Z,13.95
2023-04-24T08:46:29.840Z,14.02
2023-04-24T08:48:58.871Z,14.12
2023-04-24T08:51:29.548Z,14.23
2023-04-24T08:53:58.704Z,14.18
2023-04-24T08:56:28.189Z,14.12
2023-04-24T08:58:56.606Z,14.02
2023-04-24T09:01:29.907Z,14.01
2023-04-24T09:03:59.006Z,13.77
2023-04-24T09:06:28.344Z,13.70
2023-04-24T09:08:57.501Z,13.44
2023-04-24T09:11:27.041Z,13.39
2023-04-24T09:13:56.368Z,13.52
2023-04-24T09:16:25.435Z,13.61
2023-04-24T09:18:55.834Z,13.66
2023-04-24T09:21:24.751Z,13.78
2023-04-24T09:24:01.979Z,13.89
2023-04-24T09:26:33.896Z,13.92
2023-04-24T09:29:02.738Z,13.83
2023-04-24T09:31:31.883Z,13.69
2023-04-24T09:34:08.253Z,13.72
2023-04-24T09:36:39.137Z,13.64
2023-04-24T09:39:11.712Z,13.75
2023-04-24T09:41:47.092Z,13.71
2023-04-24T09:44:17.309Z,13.60
2023-04-24T09:46:50.920Z,13.50
2023-04-24T09:49:26.218Z,13.64
2023-04-24T09:52:04.202Z,13.66
2023-04-24T09:54:32.412Z,13.74
2023-04-24T09:57:01.336Z,13.83
2023-04-24T09:59:29.534Z,14.13
2023-04-24T10:01:59.677Z,14.41
2023-04-24T10:04:31.169Z,14.52
2023-04-24T10:07:00.852Z,14.73
2023-04-24T10:09:29.249Z,14.72
2023-04-24T10:11:57.551Z,14.89
2023-04-24T10:14:27.228Z,14.99
2023-04-24T10:16:58.893Z,15.05
2023-04-24T10:19:31.354Z,15.01
2023-04-24T10:22:00.429Z,14.91
2023-04-24T10:24:28.776Z,14.82
2023-04-24T10:26:57.858Z,14.84
2023-04-24T10:29:26.437Z,14.83
2023-04-24T10:31:54.718Z,14.72
2023-04-24T10:34:23.937Z,14.77
2023-04-24T10:36:58.126Z,14.74
2023-04-24T10:39:27.941Z,14.69
2023-04-24T10:41:58.502Z,14.72
2023-04-24T10:44:27.738Z,14.74
2023-04-24T10:47:00.384Z,14.64
2023-04-24T10:49:33.437Z,14.64
2023-04-24T10:52:06.471Z,14.63
2023-04-24T10:54:42.782Z,14.64
2023-04-24T10:57:33.660Z,14.60
2023-04-24T11:00:22.326Z,14.48
2023-04-24T11:02:51.709Z,14.40
2023-04-24T11:05:21.455Z,14.45
2023-04-24T11:08:16.983Z,14.38
2023-04-24T11:10:47.411Z,14.51
2023-04-24T11:13:18.387Z,14.52
2023-04-24T11:15:46.546Z,14.58
2023-04-24T11:18:17.714Z,14.71
2023-04-24T11:20:46.896Z,14.75
2023-04-24T11:23:17.020Z,14.86
2023-04-24T11:25:45.311Z,14.86
2023-04-24T11:28:18.370Z,14.94
2023-04-24T11:30:46.526Z,14.72
2023-04-24T11:33:23.030Z,14.80
2023-04-24T11:35:53.335Z,14.81
2023-04-24T11:38:24.984Z,14.47
2023-04-24T11:40:54.327Z,14.41
2023-04-24T11:43:23.169Z,14.52
2023-04-24T11:45:51.833Z,14.80
2023-04-24T11:48:23.860Z,14.97
2023-04-24T11:50:52.490Z,15.20
2023-04-24T11:53:22.996Z,15.35
2023-04-24T11:55:51.217Z,15.22
2023-04-24T11:58:23.910Z,15.25
2023-04-24T12:01:00.478Z,15.08
2023-04-24T12:03:29.065Z,14.95
2023-04-24T12:06:08.694Z,14.81
2023-04-24T12:08:39.151Z,14.70
2023-04-24T12:11:09.471Z,14.84
2023-04-24T12:13:38.079Z,14.66
2023-04-24T12:16:31.825Z,14.61
2023-04-24T12:19:07.359Z,14.42
2023-04-24T12:21:35.980Z,14.62
2023-04-24T12:24:08.852Z,14.70
2023-04-24T12:26:36.941Z,14.58
2023-04-24T12:29:06.227Z,14.67
2023-04-24T12:31:34.871Z,14.66
2023-04-24T12:34:04.246Z,14.66
2023-04-24T12:36:32.429Z,14.62
2023-04-24T12:39:00.729Z,14.58
2023-04-24T12:41:33.548Z,14.57
2023-04-24T12:44:01.646Z,14.61
2023-04-24T12:46:29.742Z,14.48
2023-04-24T12:48:59.506Z,14.26
2023-04-24T12:51:27.980Z,14.21
2023-04-24T12:53:56.692Z,14.18
2023-04-24T12:56:25.321Z,14.24
2023-04-24T12:58:54.763Z,14.23
2023-04-24T13:01:25.148Z,14.26
2023-04-24T13:03:53.308Z,14.33
2023-04-24T13:06:22.192Z,14.36
2023-04-24T13:08:50.434Z,14.47
2023-04-24T13:11:18.526Z,14.64
2023-04-24T13:13:46.719Z,14.85
2023-04-24T13:16:16.302Z,15.00
2023-04-24T13:18:44.484Z,15.04
2023-04-24T13:21:12.575Z,15.05
2023-04-24T13:23:42.467Z,15.02
2023-04-24T13:26:10.848Z,15.10
2023-04-24T13:28:39.345Z,14.97
2023-04-24T13:31:07.825Z,14.94
2023-04-24T13:33:37.674Z,14.68
2023-04-24T13:36:06.078Z,14.72
2023-04-24T13:38:34.443Z,14.66
2023-04-24T13:41:02.845Z,14.61
2023-04-24T13:43:30.962Z,14.52
2023-04-24T13:46:00.375Z,14.46
2023-04-24T13:48:28.586Z,14.47
2023-04-24T13:50:58.120Z,14.60
2023-04-24T13:53:26.295Z,14.66
2023-04-24T13:55:54.414Z,14.79
2023-04-24T13:58:22.657Z,14.72
2023-04-24T14:00:50.706Z,14.60
2023-04-24T14:03:18.922Z,14.60
2023-04-24T14:05:47.092Z,14.51
2023-04-24T14:08:16.581Z,14.36
2023-04-24T14:10:45.201Z,14.56
2023-04-24T14:13:13.512Z,14.73
2023-04-24T14:15:41.580Z,14.86
2023-04-24T14:18:09.977Z,14.96
2023-04-24T14:20:38.268Z,15.05
2023-04-24T14:23:06.509Z,14.91
2023-04-24T14:25:36.227Z,14.74
2023-04-24T14:28:04.510Z,14.71
2023-04-24T14:30:32.849Z,14.69
2023-04-24T14:33:01.017Z,14.50
2023-04-24T14:35:30.795Z,14.52
2023-04-24T14:37:59.683Z,14.62
2023-04-24T14:40:48.728Z,14.64
2023-04-24T14:43:17.367Z,14.55
2023-04-24T14:45:45.458Z,14.67
2023-04-24T14:48:13.900Z,14.85
2023-04-24T14:50:42.173Z,14.71
2023-04-24T14:53:10.430Z,14.72
2023-04-24T14:55:38.631Z,14.62
2023-04-24T14:58:06.712Z,14.52
2023-04-24T15:00:36.320Z,14.43
2023-04-24T15:03:04.693Z,14.33
2023-04-24T15:05:33.365Z,14.39
2023-04-24T15:08:01.639Z,14.36
2023-04-24T15:10:30.666Z,14.36
2023-04-24T15:12:58.758Z,14.35
2023-04-24T15:15:27.408Z,14.43
2023-04-24T15:17:57.342Z,14.38
2023-04-24T15:20:25.498Z,14.10
2023-04-24T15:22:53.618Z,13.90
2023-04-24T15:25:21.740Z,13.89
2023-04-24T15:27:50.152Z,13.98
2023-04-24T15:30:18.274Z,14.11
2023-04-24T15:32:46.587Z,14.07
2023-04-24T15:35:17.153Z,14.02
2023-04-24T15:37:45.762Z,13.87
2023-04-24T15:40:16.990Z,13.91
2023-04-24T15:42:45.456Z,13.97
2023-04-24T15:45:13.798Z,14.06
2023-04-24T15:47:42.131Z,14.10
2023-04-24T15:50:14.185Z,14.12
2023-04-24T15:52:44.720Z,14.25
2023-04-24T15:55:13.230Z,14.24
2023-04-24T15:57:41.417Z,14.38
2023-04-24T16:00:11.207Z,14.58
2023-04-24T16:02:42.774Z,14.60
2023-04-24T16:05:11.739Z,14.55
2023-04-24T16:07:41.071Z,14.55
2023-04-24T16:10:12.084Z,14.55
2023-04-24T16:12:40.773Z,14.53
2023-04-24T16:15:09.702Z,14.45
2023-04-24T16:17:38.054Z,14.50
2023-04-24T16:20:07.873Z,14.56
2023-04-24T16:22:36.032Z,14.58
2023-04-24T16:25:04.332Z,14.52
2023-04-24T16:27:34.090Z,14.53
2023-04-24T16:30:02.524Z,14.58
2023-04-24T16:32:30.870Z,14.52
2023-04-24T16:34:58.989Z,14.46
2023-04-24T16:37:27.198Z,14.45
2023-04-24T16:39:56.065Z,14.37
2023-04-24T16:42:24.480Z,14.43
2023-04-24T16:44:53.901Z,14.49
2023-04-24T16:47:22.714Z,14.59
2023-04-24T16:49:50.897Z,14.60
2023-04-24T16:52:18.946Z,14.50
2023-04-24T16:54:47.164Z,14.61
2023-04-24T16:57:15.691Z,14.56
2023-04-24T16:59:43.785Z,14.65
2023-04-24T17:02:13.230Z,14.76
2023-04-24T17:04:42.071Z,14.65
2023-04-24T17:07:10.283Z,14.50
2023-04-24T17:09:38.452Z,14.43
2023-04-24T17:12:07.492Z,14.36
2023-04-24T17:14:36.028Z,14.43
2023-04-24T17:17:05.502Z,14.50
2023-04-24T17:19:35.019Z,14.51
2023-04-24T17:22:06.103Z,14.50
2023-04-24T17:24:34.702Z,14.44
2023-04-24T17:27:13.928Z,14.44
2023-04-24T17:29:43.734Z,14.31
2023-04-24T17:32:12.007Z,14.25
2023-04-24T17:34:41.470Z,14.19
2023-04-24T17:37:10.025Z,14.30
2023-04-24T17:39:39.021Z,14.16
2023-04-24T17:42:07.987Z,14.16
2023-04-24T17:44:37.038Z,14.19
2023-04-24T17:47:05.186Z,14.14
2023-04-24T17:49:34.154Z,13.92
2023-04-24T17:52:03.720Z,14.15
2023-04-24T17:54:31.938Z,14.06
2023-04-24T17:57:00.129Z,13.94
2023-04-24T17:59:28.476Z,13.86
2023-04-24T18:01:57.702Z,14.06
2023-04-24T18:04:27.012Z,14.05
2023-04-24T18:06:56.150Z,14.03
2023-04-24T18:09:26.011Z,14.03
2023-04-24T18:11:54.741Z,14.05
2023-04-24T18:14:23.211Z,13.94
2023-04-24T18:16:51.376Z,13.89
2023-04-24T18:19:19.559Z,13.80
2023-04-24T18:21:47.784Z,13.67
2023-04-24T18:24:15.951Z,13.77
2023-04-24T18:26:45.358Z,13.72
2023-04-24T18:29:13.470Z,13.73
2023-04-24T18:31:42.063Z,13.71
2023-04-24T18:34:10.574Z,13.73
2023-04-24T18:36:38.608Z,13.75
2023-04-24T18:39:06.618Z,13.64
2023-04-24T18:41:35.363Z,13.62
2023-04-24T18:44:04.856Z,13.59
2023-04-24T18:46:37.889Z,13.50
2023-04-24T18:49:06.201Z,13.38
2023-04-24T18:51:46.700Z,13.39
2023-04-24T18:54:21.112Z,13.36
2023-04-24T18:56:49.219Z,13.39
2023-04-24T18:59:19.143Z,13.38
2023-04-24T19:01:47.488Z,13.27
2023-04-24T19:04:16.045Z,13.33
2023-04-24T19:06:44.155Z,13.48
2023-04-24T19:09:13.042Z,13.39
2023-04-24T19:11:41.764Z,13.40
2023-04-24T19:14:10.181Z,13.39
2023-04-24T19:16:39.637Z,13.42
2023-04-24T19:19:07.738Z,13.41
2023-04-24T19:21:36.469Z,13.37
2023-04-24T19:24:05.031Z,13.38
2023-04-24T19:26:33.096Z,13.42
2023-04-24T19:29:01.660Z,13.41
2023-04-24T19:31:29.865Z,13.40
2023-04-24T19:33:59.293Z,13.38
2023-04-24T19:36:28.223Z,13.43
2023-04-24T19:38:56.467Z,13.36
2023-04-24T19:41:24.549Z,13.32
2023-04-24T19:43:52.580Z,13.35
2023-04-24T19:46:21.004Z,13.26
2023-04-24T19:48:49.397Z,13.34
2023-04-24T19:51:19.236Z,13.38
2023-04-24T19:53:47.389Z,13.37
2023-04-24T19:56:15.495Z,13.31
2023-04-24T19:58:43.573Z,13.31
2023-04-24T20:01:11.877Z,13.38
2023-04-24T20:03:40.098Z,13.38
2023-04-24T20:06:09.201Z,13.29
2023-04-24T20:08:39.583Z,13.18
2023-04-24T20:11:07.715Z,13.24
2023-04-24T20:13:35.897Z,13.13
2023-04-24T20:16:04.436Z,13.14
2023-04-24T20:18:32.601Z,13.11
2023-04-24T20:21:00.841Z,13.06
2023-04-24T20:23:28.950Z,13.05
2023-04-24T20:25:58.875Z,13.03
2023-04-24T20:28:27.391Z,13.01
2023-04-24T20:30:55.585Z,12.97
2023-04-24T20:33:23.983Z,12.95
2023-04-24T20:35:52.388Z,12.95
2023-04-24T20:38:22.359Z,13.00
2023-04-24T20:40:57.749Z,12.97
2023-04-24T20:43:29.129Z,12.91
2023-04-24T20:45:58.473Z,12.88
2023-04-24T20:48:27.108Z,12.91
2023-04-24T20:50:55.941Z,12.89
2023-04-24T20:53:25.083Z,12.93
2023-04-24T20:55:53.470Z,12.86
2023-04-24T20:58:22.202Z,12.85
2023-04-24T21:00:52.729Z,12.75
2023-04-24T21:03:21.448Z,12.78
2023-04-24T21:05:49.835Z,12.78
2023-04-24T21:08:18.140Z,12.83
2023-04-24T21:10:46.417Z,12.79
2023-04-24T21:13:14.691Z,12.71
2023-04-24T21:15:42.753Z,12.70
2023-04-24T21:18:12.412Z,12.69
2023-04-24T21:20:40.705Z,12.70
2023-04-24T21:23:08.791Z,12.67
2023-04-24T21:25:38.204Z,12.65
2023-04-24T21:28:06.646Z,12.61
2023-04-24T21:30:34.991Z,12.52
2023-04-24T21:33:03.114Z,12.50
2023-04-24T21:35:33.126Z,12.55
2023-04-24T21:38:01.174Z,12.48
2023-04-24T21:40:29.330Z,12.42
2023-04-24T21:42:57.473Z,12.32
2023-04-24T21:45:25.574Z,12.34
2023-04-24T21:47:53.674Z,12.34
2023-04-24T21:50:21.991Z,12.33
2023-04-24T21:52:51.364Z,12.25
2023-04-24T21:55:19.446Z,12.22
2023-04-24T21:57:47.573Z,12.17
2023-04-24T22:00:17.250Z,12.23
2023-04-24T22:02:45.565Z,12.20
2023-04-24T22:05:15.792Z,12.18
2023-04-24T22:07:46.689Z,12.15
2023-04-24T22:10:18.567Z,12.13
2023-04-24T22:12:46.688Z,12.14
2023-04-24T22:15:14.805Z,12.22
2023-04-24T22:17:43.534Z,12.15
2023-04-24T22:20:12.900Z,12.18
2023-04-24T22:22:41.029Z,12.24
2023-04-24T22:25:10.349Z,12.22
2023-04-24T22:27:39.693Z,12.25
2023-04-24T22:30:10.216Z,12.12
2023-04-24T22:32:38.696Z,12.09
2023-04-24T22:35:08.095Z,12.15
2023-04-24T22:37:36.405Z,12.23
2023-04-24T22:40:13.792Z,12.30
2023-04-24T22:42:43.389Z,12.36
2023-04-24T22:45:13.381Z,12.32
2023-04-24T22:47:41.643Z,12.39
2023-04-24T22:50:10.845Z,12.42
2023-04-24T22:52:40.966Z,12.40
2023-04-24T22:55:10.857Z,12.42
2023-04-24T22:57:39.201Z,12.43
2023-04-24T23:00:12.743Z,12.34
2023-04-24T23:02:42.411Z,12.25
2023-04-24T23:05:11.826Z,12.24
2023-04-24T23:07:39.997Z,12.15
2023-04-24T23:10:09.133Z,12.12
2023-04-24T23:12:37.234Z,12.00
2023-04-24T23:15:08.585Z,12.06
2023-04-24T23:17:36.695Z,12.12
2023-04-24T23:20:05.687Z,12.16
2023-04-24T23:22:33.773Z,12.19
2023-04-24T23:25:02.435Z,12.25
2023-04-24T23:27:30.542Z,12.22
2023-04-24T23:29:58.560Z,12.36
2023-04-24T23:32:28.042Z,12.38
2023-04-24T23:34:56.440Z,12.38
2023-04-24T23:37:24.695Z,12.42
2023-04-24T23:39:52.844Z,12.39
2023-04-24T23:42:21.001Z,12.33
2023-04-24T23:44:49.102Z,12.31
2023-04-24T23:47:17.304Z,12.32
2023-04-24T23:49:46.671Z,12.36
2023-04-24T23:52:14.789Z,12.31
2023-04-24T23:54:42.902Z,12.25
2023-04-24T23:57:11.144Z,12.28
2023-04-24T23:59:39.218Z,12.27
